sensor_id;sensor_type;location;lat;lon;timestamp;pressure;altitude;pressure_sealevel;temperature
8362;BMP180;4218;48.326;14.304;2024-01-30T00:00:22;100016.00;;;-3.40
8362;BMP180;4218;48.326;14.304;2024-01-30T00:02:48;100010.00;;;-3.30
8362;BMP180;4218;48.326;14.304;2024-01-30T00:05:23;100017.00;;;-3.40
8362;BMP180;4218;48.326;14.304;2024-01-30T00:08:05;100015.00;;;-3.50
8362;BMP180;4218;48.326;14.304;2024-01-30T00:10:47;100021.00;;;-3.60
8362;BMP180;4218;48.326;14.304;2024-01-30T00:13:13;100004.00;;;-3.60
8362;BMP180;4218;48.326;14.304;2024-01-30T00:15:44;100012.00;;;-3.60
8362;BMP180;4218;48.326;14.304;2024-01-30T00:18:10;100024.00;;;-3.50
8362;BMP180;4218;48.326;14.304;2024-01-30T00:23:12;100000.00;;;-3.40
8362;BMP180;4218;48.326;14.304;2024-01-30T00:25:56;100013.00;;;-3.30
8362;BMP180;4218;48.326;14.304;2024-01-30T00:28:29;100009.00;;;-3.20
8362;BMP180;4218;48.326;14.304;2024-01-30T00:31:01;100011.00;;;-3.20
8362;BMP180;4218;48.326;14.304;2024-01-30T00:33:32;100016.00;;;-3.20
8362;BMP180;4218;48.326;14.304;2024-01-30T00:36:13;100011.00;;;-3.20
8362;BMP180;4218;48.326;14.304;2024-01-30T00:38:40;100009.00;;;-3.40
8362;BMP180;4218;48.326;14.304;2024-01-30T00:41:12;100025.00;;;-3.50
8362;BMP180;4218;48.326;14.304;2024-01-30T00:43:38;100011.00;;;-3.40
8362;BMP180;4218;48.326;14.304;2024-01-30T00:46:03;100011.00;;;-3.30
8362;BMP180;4218;48.326;14.304;2024-01-30T00:48:34;100004.00;;;-3.40
8362;BMP180;4218;48.326;14.304;2024-01-30T00:51:04;100028.00;;;-3.30
8362;BMP180;4218;48.326;14.304;2024-01-30T00:53:40;100021.00;;;-3.40
8362;BMP180;4218;48.326;14.304;2024-01-30T00:56:39;100033.00;;;-3.40
8362;BMP180;4218;48.326;14.304;2024-01-30T00:59:13;100030.00;;;-3.60
8362;BMP180;4218;48.326;14.304;2024-01-30T01:01:41;100014.00;;;-3.40
8362;BMP180;4218;48.326;14.304;2024-01-30T01:04:15;100016.00;;;-3.50
8362;BMP180;4218;48.326;14.304;2024-01-30T01:06:40;100011.00;;;-3.70
8362;BMP180;4218;48.326;14.304;2024-01-30T01:09:13;100003.00;;;-3.80
8362;BMP180;4218;48.326;14.304;2024-01-30T01:11:47;100016.00;;;-3.90
8362;BMP180;4218;48.326;14.304;2024-01-30T01:14:28;99986.00;;;-3.80
8362;BMP180;4218;48.326;14.304;2024-01-30T01:17:21;99983.00;;;-3.90
8362;BMP180;4218;48.326;14.304;2024-01-30T01:20:15;100010.00;;;-4.00
8362;BMP180;4218;48.326;14.304;2024-01-30T01:22:44;100003.00;;;-4.00
8362;BMP180;4218;48.326;14.304;2024-01-30T01:25:09;99986.00;;;-3.90
8362;BMP180;4218;48.326;14.304;2024-01-30T01:27:40;100002.00;;;-3.90
8362;BMP180;4218;48.326;14.304;2024-01-30T01:30:30;99995.00;;;-3.90
8362;BMP180;4218;48.326;14.304;2024-01-30T01:32:57;99987.00;;;-3.90
8362;BMP180;4218;48.326;14.304;2024-01-30T01:35:26;99995.00;;;-3.80
8362;BMP180;4218;48.326;14.304;2024-01-30T01:38:00;100000.00;;;-3.70
8362;BMP180;4218;48.326;14.304;2024-01-30T01:40:27;99999.00;;;-3.70
8362;BMP180;4218;48.326;14.304;2024-01-30T01:43:11;99995.00;;;-3.70
8362;BMP180;4218;48.326;14.304;2024-01-30T01:45:37;99998.00;;;-3.80
8362;BMP180;4218;48.326;14.304;2024-01-30T01:48:14;99993.00;;;-3.70
8362;BMP180;4218;48.326;14.304;2024-01-30T01:50:49;99987.00;;;-3.70
8362;BMP180;4218;48.326;14.304;2024-01-30T01:53:17;100000.00;;;-3.70
8362;BMP180;4218;48.326;14.304;2024-01-30T01:55:55;99978.00;;;-3.70
8362;BMP180;4218;48.326;14.304;2024-01-30T01:58:47;99994.00;;;-3.90
8362;BMP180;4218;48.326;14.304;2024-01-30T02:01:23;99983.00;;;-4.00
8362;BMP180;4218;48.326;14.304;2024-01-30T02:04:06;99979.00;;;-4.00
8362;BMP180;4218;48.326;14.304;2024-01-30T02:06:47;99983.00;;;-4.00
8362;BMP180;4218;48.326;14.304;2024-01-30T02:09:16;99972.00;;;-3.90
8362;BMP180;4218;48.326;14.304;2024-01-30T02:11:55;99984.00;;;-3.90
8362;BMP180;4218;48.326;14.304;2024-01-30T02:14:23;99985.00;;;-4.00
8362;BMP180;4218;48.326;14.304;2024-01-30T02:16:58;99977.00;;;-4.00
8362;BMP180;4218;48.326;14.304;2024-01-30T02:19:39;99998.00;;;-4.00
8362;BMP180;4218;48.326;14.304;2024-01-30T02:22:13;99974.00;;;-4.10
8362;BMP180;4218;48.326;14.304;2024-01-30T02:24:44;99987.00;;;-4.00
8362;BMP180;4218;48.326;14.304;2024-01-30T02:27:23;99984.00;;;-3.90
8362;BMP180;4218;48.326;14.304;2024-01-30T02:30:11;99993.00;;;-3.80
8362;BMP180;4218;48.326;14.304;2024-01-30T02:32:44;99987.00;;;-3.90
8362;BMP180;4218;48.326;14.304;2024-01-30T02:35:13;99990.00;;;-3.90
8362;BMP180;4218;48.326;14.304;2024-01-30T02:37:45;99992.00;;;-3.90
8362;BMP180;4218;48.326;14.304;2024-01-30T02:40:19;99977.00;;;-4.00
8362;BMP180;4218;48.326;14.304;2024-01-30T02:42:50;100004.00;;;-4.00
8362;BMP180;4218;48.326;14.304;2024-01-30T02:45:23;99994.00;;;-4.00
8362;BMP180;4218;48.326;14.304;2024-01-30T02:47:50;99987.00;;;-4.10
8362;BMP180;4218;48.326;14.304;2024-01-30T02:50:19;99996.00;;;-4.10
8362;BMP180;4218;48.326;14.304;2024-01-30T02:52:59;99984.00;;;-4.10
8362;BMP180;4218;48.326;14.304;2024-01-30T02:55:26;99991.00;;;-4.10
8362;BMP180;4218;48.326;14.304;2024-01-30T02:58:02;99983.00;;;-4.00
8362;BMP180;4218;48.326;14.304;2024-01-30T03:00:30;99988.00;;;-4.00
8362;BMP180;4218;48.326;14.304;2024-01-30T03:03:00;99983.00;;;-3.90
8362;BMP180;4218;48.326;14.304;2024-01-30T03:08:27;99984.00;;;-3.90
8362;BMP180;4218;48.326;14.304;2024-01-30T03:11:02;100007.00;;;-3.70
8362;BMP180;4218;48.326;14.304;2024-01-30T03:13:37;99993.00;;;-3.70
8362;BMP180;4218;48.326;14.304;2024-01-30T03:16:17;99987.00;;;-3.70
8362;BMP180;4218;48.326;14.304;2024-01-30T03:18:49;99986.00;;;-3.80
8362;BMP180;4218;48.326;14.304;2024-01-30T03:21:14;100000.00;;;-3.80
8362;BMP180;4218;48.326;14.304;2024-01-30T03:23:52;99977.00;;;-3.80
8362;BMP180;4218;48.326;14.304;2024-01-30T03:26:21;99992.00;;;-3.90
8362;BMP180;4218;48.326;14.304;2024-01-30T03:28:56;99993.00;;;-3.80
8362;BMP180;4218;48.326;14.304;2024-01-30T03:31:24;99996.00;;;-3.90
8362;BMP180;4218;48.326;14.304;2024-01-30T03:33:53;99993.00;;;-4.00
8362;BMP180;4218;48.326;14.304;2024-01-30T03:36:42;99999.00;;;-4.10
8362;BMP180;4218;48.326;14.304;2024-01-30T03:39:13;99992.00;;;-4.10
8362;BMP180;4218;48.326;14.304;2024-01-30T03:42:03;99989.00;;;-4.00
8362;BMP180;4218;48.326;14.304;2024-01-30T03:47:09;99995.00;;;-3.90
8362;BMP180;4218;48.326;14.304;2024-01-30T03:49:37;100010.00;;;-3.90
8362;BMP180;4218;48.326;14.304;2024-01-30T03:52:03;100007.00;;;-4.10
8362;BMP180;4218;48.326;14.304;2024-01-30T03:54:29;99998.00;;;-4.10
8362;BMP180;4218;48.326;14.304;2024-01-30T03:57:03;99983.00;;;-4.10
8362;BMP180;4218;48.326;14.304;2024-01-30T03:59:30;99989.00;;;-4.10
8362;BMP180;4218;48.326;14.304;2024-01-30T04:01:58;99996.00;;;-3.90
8362;BMP180;4218;48.326;14.304;2024-01-30T04:04:23;100001.00;;;-3.90
8362;BMP180;4218;48.326;14.304;2024-01-30T04:06:51;100009.00;;;-4.00
8362;BMP180;4218;48.326;14.304;2024-01-30T04:09:25;99980.00;;;-3.90
8362;BMP180;4218;48.326;14.304;2024-01-30T04:11:54;99988.00;;;-3.90
8362;BMP180;4218;48.326;14.304;2024-01-30T04:14:20;99988.00;;;-4.10
8362;BMP180;4218;48.326;14.304;2024-01-30T04:16:52;99998.00;;;-4.10
8362;BMP180;4218;48.326;14.304;2024-01-30T04:19:19;99990.00;;;-4.20
8362;BMP180;4218;48.326;14.304;2024-01-30T04:21:50;99995.00;;;-4.30
8362;BMP180;4218;48.326;14.304;2024-01-30T04:24:15;100002.00;;;-4.20
8362;BMP180;4218;48.326;14.304;2024-01-30T04:26:45;99991.00;;;-4.00
8362;BMP180;4218;48.326;14.304;2024-01-30T04:29:11;100003.00;;;-3.90
8362;BMP180;4218;48.326;14.304;2024-01-30T04:31:37;100005.00;;;-3.90
8362;BMP180;4218;48.326;14.304;2024-01-30T04:34:05;100006.00;;;-3.80
8362;BMP180;4218;48.326;14.304;2024-01-30T04:36:31;100018.00;;;-3.80
8362;BMP180;4218;48.326;14.304;2024-01-30T04:38:57;100029.00;;;-3.90
8362;BMP180;4218;48.326;14.304;2024-01-30T04:41:23;100027.00;;;-3.80
8362;BMP180;4218;48.326;14.304;2024-01-30T04:43:56;100007.00;;;-3.80
8362;BMP180;4218;48.326;14.304;2024-01-30T04:46:22;100029.00;;;-4.00
8362;BMP180;4218;48.326;14.304;2024-01-30T04:48:47;100019.00;;;-4.00
8362;BMP180;4218;48.326;14.304;2024-01-30T04:51:13;100012.00;;;-3.80
8362;BMP180;4218;48.326;14.304;2024-01-30T04:53:39;100024.00;;;-3.90
8362;BMP180;4218;48.326;14.304;2024-01-30T04:56:08;100019.00;;;-3.90
8362;BMP180;4218;48.326;14.304;2024-01-30T04:58:35;100019.00;;;-4.00
8362;BMP180;4218;48.326;14.304;2024-01-30T05:01:02;100016.00;;;-3.90
8362;BMP180;4218;48.326;14.304;2024-01-30T05:03:28;100019.00;;;-3.90
8362;BMP180;4218;48.326;14.304;2024-01-30T05:05:54;100025.00;;;-4.00
8362;BMP180;4218;48.326;14.304;2024-01-30T05:08:25;100031.00;;;-4.00
8362;BMP180;4218;48.326;14.304;2024-01-30T05:10:51;100017.00;;;-4.00
8362;BMP180;4218;48.326;14.304;2024-01-30T05:13:16;100058.00;;;-4.10
8362;BMP180;4218;48.326;14.304;2024-01-30T05:15:42;100032.00;;;-4.20
8362;BMP180;4218;48.326;14.304;2024-01-30T05:18:08;100025.00;;;-4.20
8362;BMP180;4218;48.326;14.304;2024-01-30T05:20:33;100013.00;;;-4.20
8362;BMP180;4218;48.326;14.304;2024-01-30T05:23:05;100033.00;;;-4.20
8362;BMP180;4218;48.326;14.304;2024-01-30T05:25:36;100031.00;;;-4.10
8362;BMP180;4218;48.326;14.304;2024-01-30T05:28:07;100032.00;;;-4.10
8362;BMP180;4218;48.326;14.304;2024-01-30T05:30:39;100034.00;;;-4.10
8362;BMP180;4218;48.326;14.304;2024-01-30T05:33:08;100041.00;;;-4.00
8362;BMP180;4218;48.326;14.304;2024-01-30T05:36:00;100038.00;;;-4.10
8362;BMP180;4218;48.326;14.304;2024-01-30T05:38:32;100046.00;;;-4.10
8362;BMP180;4218;48.326;14.304;2024-01-30T05:41:09;100055.00;;;-4.00
8362;BMP180;4218;48.326;14.304;2024-01-30T05:43:46;100049.00;;;-4.00
8362;BMP180;4218;48.326;14.304;2024-01-30T05:46:25;100026.00;;;-4.00
8362;BMP180;4218;48.326;14.304;2024-01-30T05:48:57;100037.00;;;-4.00
8362;BMP180;4218;48.326;14.304;2024-01-30T05:51:25;100044.00;;;-4.00
8362;BMP180;4218;48.326;14.304;2024-01-30T05:54:01;100049.00;;;-4.00
8362;BMP180;4218;48.326;14.304;2024-01-30T05:57:08;100053.00;;;-4.00
8362;BMP180;4218;48.326;14.304;2024-01-30T06:00:01;100052.00;;;-4.00
8362;BMP180;4218;48.326;14.304;2024-01-30T06:05:37;100033.00;;;-4.10
8362;BMP180;4218;48.326;14.304;2024-01-30T06:50:33;100085.00;;;-3.40
8362;BMP180;4218;48.326;14.304;2024-01-30T06:53:10;100073.00;;;-3.40
8362;BMP180;4218;48.326;14.304;2024-01-30T06:56:01;100070.00;;;-3.40
8362;BMP180;4218;48.326;14.304;2024-01-30T07:28:12;100084.00;;;-3.20
8362;BMP180;4218;48.326;14.304;2024-01-30T07:46:51;100097.00;;;-3.10
8362;BMP180;4218;48.326;14.304;2024-01-30T07:49:39;100092.00;;;-3.00
8362;BMP180;4218;48.326;14.304;2024-01-30T07:52:20;100112.00;;;-2.90
8362;BMP180;4218;48.326;14.304;2024-01-30T08:00:55;100118.00;;;-2.40
8362;BMP180;4218;48.326;14.304;2024-01-30T08:03:40;100113.00;;;-2.20
8362;BMP180;4218;48.326;14.304;2024-01-30T08:08:57;100130.00;;;-2.00
8362;BMP180;4218;48.326;14.304;2024-01-30T08:12:11;100119.00;;;-1.90
8362;BMP180;4218;48.326;14.304;2024-01-30T08:15:02;100138.00;;;-1.70
8362;BMP180;4218;48.326;14.304;2024-01-30T08:20:49;100115.00;;;-1.60
8362;BMP180;4218;48.326;14.304;2024-01-30T08:23:50;100115.00;;;-1.40
8362;BMP180;4218;48.326;14.304;2024-01-30T08:26:33;100108.00;;;-1.30
8362;BMP180;4218;48.326;14.304;2024-01-30T08:29:31;100120.00;;;-1.20
8362;BMP180;4218;48.326;14.304;2024-01-30T08:35:14;100142.00;;;-1.00
8362;BMP180;4218;48.326;14.304;2024-01-30T08:37:45;100116.00;;;-0.90
8362;BMP180;4218;48.326;14.304;2024-01-30T08:40:13;100143.00;;;-0.80
8362;BMP180;4218;48.326;14.304;2024-01-30T08:42:39;100139.00;;;-0.70
8362;BMP180;4218;48.326;14.304;2024-01-30T08:45:09;100153.00;;;-0.60
8362;BMP180;4218;48.326;14.304;2024-01-30T08:47:36;100144.00;;;-0.50
8362;BMP180;4218;48.326;14.304;2024-01-30T08:50:02;100139.00;;;-0.40
8362;BMP180;4218;48.326;14.304;2024-01-30T08:52:28;100147.00;;;-0.40
8362;BMP180;4218;48.326;14.304;2024-01-30T08:54:54;100159.00;;;-0.40
8362;BMP180;4218;48.326;14.304;2024-01-30T08:57:20;100160.00;;;-0.20
8362;BMP180;4218;48.326;14.304;2024-01-30T08:59:47;100154.00;;;0.00
8362;BMP180;4218;48.326;14.304;2024-01-30T09:02:13;100156.00;;;-0.10
8362;BMP180;4218;48.326;14.304;2024-01-30T09:04:41;100161.00;;;0.00
8362;BMP180;4218;48.326;14.304;2024-01-30T09:07:08;100143.00;;;-0.10
8362;BMP180;4218;48.326;14.304;2024-01-30T09:09:34;100157.00;;;-0.10
8362;BMP180;4218;48.326;14.304;2024-01-30T09:12:01;100150.00;;;0.00
8362;BMP180;4218;48.326;14.304;2024-01-30T09:14:32;100158.00;;;-0.30
8362;BMP180;4218;48.326;14.304;2024-01-30T09:16:57;100144.00;;;-0.10
8362;BMP180;4218;48.326;14.304;2024-01-30T09:19:23;100144.00;;;0.00
8362;BMP180;4218;48.326;14.304;2024-01-30T09:21:48;100153.00;;;0.10
8362;BMP180;4218;48.326;14.304;2024-01-30T09:24:15;100148.00;;;0.10
8362;BMP180;4218;48.326;14.304;2024-01-30T09:26:43;100160.00;;;0.30
8362;BMP180;4218;48.326;14.304;2024-01-30T09:29:08;100144.00;;;0.20
8362;BMP180;4218;48.326;14.304;2024-01-30T09:31:36;100152.00;;;0.10
8362;BMP180;4218;48.326;14.304;2024-01-30T09:34:01;100151.00;;;0.10
8362;BMP180;4218;48.326;14.304;2024-01-30T09:36:26;100153.00;;;0.00
8362;BMP180;4218;48.326;14.304;2024-01-30T09:38:52;100146.00;;;0.10
8362;BMP180;4218;48.326;14.304;2024-01-30T09:41:19;100154.00;;;0.10
8362;BMP180;4218;48.326;14.304;2024-01-30T09:43:47;100152.00;;;0.10
8362;BMP180;4218;48.326;14.304;2024-01-30T09:46:17;100138.00;;;0.20
8362;BMP180;4218;48.326;14.304;2024-01-30T09:48:46;100153.00;;;0.30
8362;BMP180;4218;48.326;14.304;2024-01-30T09:51:14;100160.00;;;0.30
8362;BMP180;4218;48.326;14.304;2024-01-30T09:53:43;100144.00;;;0.40
8362;BMP180;4218;48.326;14.304;2024-01-30T09:56:09;100146.00;;;0.30
8362;BMP180;4218;48.326;14.304;2024-01-30T09:58:37;100150.00;;;0.30
8362;BMP180;4218;48.326;14.304;2024-01-30T10:01:02;100157.00;;;0.10
8362;BMP180;4218;48.326;14.304;2024-01-30T10:03:28;100144.00;;;0.20
8362;BMP180;4218;48.326;14.304;2024-01-30T10:05:55;100160.00;;;0.10
8362;BMP180;4218;48.326;14.304;2024-01-30T10:08:21;100156.00;;;0.20
8362;BMP180;4218;48.326;14.304;2024-01-30T10:10:47;100147.00;;;0.10
8362;BMP180;4218;48.326;14.304;2024-01-30T10:13:13;100150.00;;;0.00
8362;BMP180;4218;48.326;14.304;2024-01-30T10:15:39;100135.00;;;-0.20
8362;BMP180;4218;48.326;14.304;2024-01-30T10:18:05;100150.00;;;-0.30
8362;BMP180;4218;48.326;14.304;2024-01-30T10:20:33;100146.00;;;0.10
8362;BMP180;4218;48.326;14.304;2024-01-30T10:22:59;100142.00;;;0.30
8362;BMP180;4218;48.326;14.304;2024-01-30T10:25:33;100153.00;;;-0.10
8362;BMP180;4218;48.326;14.304;2024-01-30T10:27:59;100167.00;;;0.10
8362;BMP180;4218;48.326;14.304;2024-01-30T10:30:27;100128.00;;;0.10
8362;BMP180;4218;48.326;14.304;2024-01-30T10:32:53;100154.00;;;0.50
8362;BMP180;4218;48.326;14.304;2024-01-30T10:35:18;100148.00;;;0.30
8362;BMP180;4218;48.326;14.304;2024-01-30T10:37:47;100131.00;;;0.40
8362;BMP180;4218;48.326;14.304;2024-01-30T10:40:15;100134.00;;;0.60
8362;BMP180;4218;48.326;14.304;2024-01-30T10:42:43;100112.00;;;0.50
8362;BMP180;4218;48.326;14.304;2024-01-30T10:45:11;100131.00;;;0.40
8362;BMP180;4218;48.326;14.304;2024-01-30T10:47:58;100135.00;;;0.50
8362;BMP180;4218;48.326;14.304;2024-01-30T10:50:59;100130.00;;;0.60
8362;BMP180;4218;48.326;14.304;2024-01-30T10:53:28;100133.00;;;0.60
8362;BMP180;4218;48.326;14.304;2024-01-30T10:56:05;100122.00;;;0.50
8362;BMP180;4218;48.326;14.304;2024-01-30T10:59:08;100124.00;;;0.70
8362;BMP180;4218;48.326;14.304;2024-01-30T11:01:35;100113.00;;;0.40
8362;BMP180;4218;48.326;14.304;2024-01-30T11:04:03;100105.00;;;0.60
8362;BMP180;4218;48.326;14.304;2024-01-30T11:06:40;100102.00;;;0.60
8362;BMP180;4218;48.326;14.304;2024-01-30T11:09:10;100108.00;;;0.60
8362;BMP180;4218;48.326;14.304;2024-01-30T11:12:03;100101.00;;;0.50
8362;BMP180;4218;48.326;14.304;2024-01-30T11:14:30;100099.00;;;0.40
8362;BMP180;4218;48.326;14.304;2024-01-30T11:17:09;100089.00;;;0.60
8362;BMP180;4218;48.326;14.304;2024-01-30T11:19:44;100089.00;;;0.40
8362;BMP180;4218;48.326;14.304;2024-01-30T11:22:12;100099.00;;;0.80
8362;BMP180;4218;48.326;14.304;2024-01-30T11:24:41;100095.00;;;0.80
8362;BMP180;4218;48.326;14.304;2024-01-30T11:27:11;100090.00;;;0.50
8362;BMP180;4218;48.326;14.304;2024-01-30T11:29:42;100092.00;;;0.60
8362;BMP180;4218;48.326;14.304;2024-01-30T11:32:23;100083.00;;;0.90
8362;BMP180;4218;48.326;14.304;2024-01-30T11:34:54;100082.00;;;1.00
8362;BMP180;4218;48.326;14.304;2024-01-30T11:37:21;100106.00;;;1.00
8362;BMP180;4218;48.326;14.304;2024-01-30T11:39:53;100095.00;;;1.00
8362;BMP180;4218;48.326;14.304;2024-01-30T11:42:19;100084.00;;;1.10
8362;BMP180;4218;48.326;14.304;2024-01-30T11:44:51;100081.00;;;1.10
8362;BMP180;4218;48.326;14.304;2024-01-30T11:47:17;100069.00;;;1.00
8362;BMP180;4218;48.326;14.304;2024-01-30T11:49:47;100088.00;;;1.10
8362;BMP180;4218;48.326;14.304;2024-01-30T11:52:14;100076.00;;;0.80
8362;BMP180;4218;48.326;14.304;2024-01-30T11:54:40;100077.00;;;1.10
8362;BMP180;4218;48.326;14.304;2024-01-30T11:57:07;100081.00;;;1.10
8362;BMP180;4218;48.326;14.304;2024-01-30T11:59:33;100080.00;;;1.00
8362;BMP180;4218;48.326;14.304;2024-01-30T12:02:00;100073.00;;;1.00
8362;BMP180;4218;48.326;14.304;2024-01-30T12:04:31;100055.00;;;0.80
8362;BMP180;4218;48.326;14.304;2024-01-30T12:06:56;100064.00;;;0.90
8362;BMP180;4218;48.326;14.304;2024-01-30T12:09:23;100060.00;;;0.90
8362;BMP180;4218;48.326;14.304;2024-01-30T12:11:50;100057.00;;;0.80
8362;BMP180;4218;48.326;14.304;2024-01-30T12:14:16;100074.00;;;0.80
8362;BMP180;4218;48.326;14.304;2024-01-30T12:16:42;100065.00;;;0.80
8362;BMP180;4218;48.326;14.304;2024-01-30T12:19:08;100040.00;;;1.00
8362;BMP180;4218;48.326;14.304;2024-01-30T12:21:38;100040.00;;;1.00
8362;BMP180;4218;48.326;14.304;2024-01-30T12:24:05;100059.00;;;1.00
8362;BMP180;4218;48.326;14.304;2024-01-30T12:26:32;100058.00;;;1.10
8362;BMP180;4218;48.326;14.304;2024-01-30T12:28:58;100052.00;;;1.00
8362;BMP180;4218;48.326;14.304;2024-01-30T12:31:27;100036.00;;;0.50
8362;BMP180;4218;48.326;14.304;2024-01-30T12:34:00;100060.00;;;0.80
8362;BMP180;4218;48.326;14.304;2024-01-30T12:36:28;100051.00;;;0.80
8362;BMP180;4218;48.326;14.304;2024-01-30T12:38:58;100035.00;;;0.80
8362;BMP180;4218;48.326;14.304;2024-01-30T12:41:26;100032.00;;;0.70
8362;BMP180;4218;48.326;14.304;2024-01-30T12:43:57;100034.00;;;0.70
8362;BMP180;4218;48.326;14.304;2024-01-30T12:46:35;100022.00;;;0.80
8362;BMP180;4218;48.326;14.304;2024-01-30T12:49:04;100033.00;;;0.80
8362;BMP180;4218;48.326;14.304;2024-01-30T12:51:29;100036.00;;;1.00
8362;BMP180;4218;48.326;14.304;2024-01-30T12:53:55;100027.00;;;1.10
8362;BMP180;4218;48.326;14.304;2024-01-30T12:56:22;100030.00;;;1.20
8362;BMP180;4218;48.326;14.304;2024-01-30T12:58:50;100015.00;;;1.10
8362;BMP180;4218;48.326;14.304;2024-01-30T13:01:18;100043.00;;;1.10
8362;BMP180;4218;48.326;14.304;2024-01-30T13:03:44;100017.00;;;0.90
8362;BMP180;4218;48.326;14.304;2024-01-30T13:06:11;100035.00;;;0.90
8362;BMP180;4218;48.326;14.304;2024-01-30T13:08:37;100038.00;;;1.10
8362;BMP180;4218;48.326;14.304;2024-01-30T13:11:02;100028.00;;;1.10
8362;BMP180;4218;48.326;14.304;2024-01-30T13:13:28;100025.00;;;1.00
8362;BMP180;4218;48.326;14.304;2024-01-30T13:15:55;100035.00;;;1.20
8362;BMP180;4218;48.326;14.304;2024-01-30T13:18:24;100035.00;;;1.20
8362;BMP180;4218;48.326;14.304;2024-01-30T13:20:51;100018.00;;;0.80
8362;BMP180;4218;48.326;14.304;2024-01-30T13:23:22;100020.00;;;1.10
8362;BMP180;4218;48.326;14.304;2024-01-30T13:25:48;100019.00;;;1.20
8362;BMP180;4218;48.326;14.304;2024-01-30T13:28:36;100014.00;;;1.20
8362;BMP180;4218;48.326;14.304;2024-01-30T13:31:02;100017.00;;;1.30
8362;BMP180;4218;48.326;14.304;2024-01-30T13:33:29;100012.00;;;1.30
8362;BMP180;4218;48.326;14.304;2024-01-30T13:35:55;100009.00;;;1.30
8362;BMP180;4218;48.326;14.304;2024-01-30T13:38:21;100024.00;;;1.30
8362;BMP180;4218;48.326;14.304;2024-01-30T13:40:47;100024.00;;;1.10
8362;BMP180;4218;48.326;14.304;2024-01-30T13:43:14;100041.00;;;1.20
8362;BMP180;4218;48.326;14.304;2024-01-30T13:45:44;100029.00;;;1.00
8362;BMP180;4218;48.326;14.304;2024-01-30T13:48:12;100025.00;;;1.30
8362;BMP180;4218;48.326;14.304;2024-01-30T13:50:38;100018.00;;;1.30
8362;BMP180;4218;48.326;14.304;2024-01-30T13:53:04;100016.00;;;1.20
8362;BMP180;4218;48.326;14.304;2024-01-30T13:55:31;100026.00;;;0.90
8362;BMP180;4218;48.326;14.304;2024-01-30T13:57:57;100011.00;;;1.00
8362;BMP180;4218;48.326;14.304;2024-01-30T14:00:27;100000.00;;;0.80
8362;BMP180;4218;48.326;14.304;2024-01-30T14:02:53;100020.00;;;0.60
8362;BMP180;4218;48.326;14.304;2024-01-30T14:05:22;100017.00;;;0.80
8362;BMP180;4218;48.326;14.304;2024-01-30T14:07:49;100004.00;;;0.90
8362;BMP180;4218;48.326;14.304;2024-01-30T14:10:17;100016.00;;;0.90
8362;BMP180;4218;48.326;14.304;2024-01-30T14:12:45;100015.00;;;0.70
8362;BMP180;4218;48.326;14.304;2024-01-30T14:15:14;100005.00;;;0.70
8362;BMP180;4218;48.326;14.304;2024-01-30T14:17:44;100013.00;;;0.70
8362;BMP180;4218;48.326;14.304;2024-01-30T14:20:14;100020.00;;;0.90
8362;BMP180;4218;48.326;14.304;2024-01-30T14:22:41;100013.00;;;0.90
8362;BMP180;4218;48.326;14.304;2024-01-30T14:25:09;100009.00;;;1.00
8362;BMP180;4218;48.326;14.304;2024-01-30T14:27:37;100015.00;;;0.90
8362;BMP180;4218;48.326;14.304;2024-01-30T14:30:03;100027.00;;;1.10
8362;BMP180;4218;48.326;14.304;2024-01-30T14:32:29;100008.00;;;1.30
8362;BMP180;4218;48.326;14.304;2024-01-30T14:34:55;100009.00;;;1.20
8362;BMP180;4218;48.326;14.304;2024-01-30T14:37:21;100020.00;;;1.20
8362;BMP180;4218;48.326;14.304;2024-01-30T14:39:48;100011.00;;;1.20
8362;BMP180;4218;48.326;14.304;2024-01-30T14:42:17;100010.00;;;1.20
8362;BMP180;4218;48.326;14.304;2024-01-30T14:44:44;100005.00;;;1.10
8362;BMP180;4218;48.326;14.304;2024-01-30T14:47:11;100008.00;;;0.90
8362;BMP180;4218;48.326;14.304;2024-01-30T14:49:38;100012.00;;;0.80
8362;BMP180;4218;48.326;14.304;2024-01-30T14:52:05;100009.00;;;0.90
8362;BMP180;4218;48.326;14.304;2024-01-30T14:54:32;99998.00;;;1.00
8362;BMP180;4218;48.326;14.304;2024-01-30T14:57:02;100013.00;;;1.10
8362;BMP180;4218;48.326;14.304;2024-01-30T14:59:39;100010.00;;;1.10
8362;BMP180;4218;48.326;14.304;2024-01-30T15:02:06;100024.00;;;1.20
8362;BMP180;4218;48.326;14.304;2024-01-30T15:04:35;100014.00;;;1.10
8362;BMP180;4218;48.326;14.304;2024-01-30T15:07:00;100013.00;;;1.00
8362;BMP180;4218;48.326;14.304;2024-01-30T15:09:28;100001.00;;;1.10
8362;BMP180;4218;48.326;14.304;2024-01-30T15:11:55;100001.00;;;1.00
8362;BMP180;4218;48.326;14.304;2024-01-30T15:14:20;99997.00;;;1.10
8362;BMP180;4218;48.326;14.304;2024-01-30T15:16:46;100006.00;;;1.00
8362;BMP180;4218;48.326;14.304;2024-01-30T15:19:12;100002.00;;;0.80
8362;BMP180;4218;48.326;14.304;2024-01-30T15:21:38;100009.00;;;0.40
8362;BMP180;4218;48.326;14.304;2024-01-30T15:24:05;99997.00;;;0.60
8362;BMP180;4218;48.326;14.304;2024-01-30T15:26:31;100001.00;;;0.80
8362;BMP180;4218;48.326;14.304;2024-01-30T15:29:01;100002.00;;;0.50
8362;BMP180;4218;48.326;14.304;2024-01-30T15:31:31;99994.00;;;0.50
8362;BMP180;4218;48.326;14.304;2024-01-30T15:33:58;99996.00;;;0.50
8362;BMP180;4218;48.326;14.304;2024-01-30T15:36:29;100027.00;;;0.60
8362;BMP180;4218;48.326;14.304;2024-01-30T15:39:04;100025.00;;;0.50
8362;BMP180;4218;48.326;14.304;2024-01-30T15:41:33;100026.00;;;0.50
8362;BMP180;4218;48.326;14.304;2024-01-30T15:43:58;99993.00;;;0.60
8362;BMP180;4218;48.326;14.304;2024-01-30T15:46:27;100021.00;;;0.30
8362;BMP180;4218;48.326;14.304;2024-01-30T15:48:54;100017.00;;;0.10
8362;BMP180;4218;48.326;14.304;2024-01-30T15:51:20;100017.00;;;0.20
8362;BMP180;4218;48.326;14.304;2024-01-30T15:53:46;100028.00;;;0.30
8362;BMP180;4218;48.326;14.304;2024-01-30T15:56:16;100013.00;;;0.30
8362;BMP180;4218;48.326;14.304;2024-01-30T15:58:47;100028.00;;;0.40
8362;BMP180;4218;48.326;14.304;2024-01-30T16:01:15;100027.00;;;0.40
